Time;durP1;ratioP1;P1;durP2;ratioP2;P2;SDS_P1;SDS_P2;PMS_P1;PMS_P2;Temp;Humidity;BMP_temperature;BMP_pressure;BME280_temperature;BME280_humidity;BME280_pressure;Samples;Min_cycle;Max_cycle;Signal;HPM_P1;HPM_P2
2024/01/04 00:01:36;;;;;;;;;;;;;;;;;;5091957;28;19986;-50
2024/01/04 00:04:02;;;;;;;;;;;;;;;;;;5092729;28;19919;-52
2024/01/04 00:06:28;;;;;;;;;;;;;;;;;;5093595;28;19912;-50
2024/01/04 00:08:54;;;;;;;;;;;;;;;;;;5093575;28;19919;-49
2024/01/04 00:11:20;;;;;;;;;;;;;;;;;;5078322;28;19952;-52
2024/01/04 00:13:46;;;;;;;;;;;;;;;;;;5092187;28;19983;-50
2024/01/04 00:16:12;;;;;;;;;;;;;;;;;;5092943;28;19919;-52
2024/01/04 00:18:38;;;;;;;;;;;;;;;;;;5077937;28;19920;-51
2024/01/04 00:21:04;;;;;;;;;;;;;;;;;;5093338;28;19908;-50
2024/01/04 00:23:33;;;;;;;;;;;;;;;;;;5092147;28;19961;-49
2024/01/04 00:25:59;;;;;;;;;;;;;;;;;;5092548;28;20034;-50
2024/01/04 00:28:25;;;;;;;;;;;;;;;;;;5091294;28;19963;-52
2024/01/04 00:30:51;;;;;;;;;;;;;;;;;;5075738;28;19912;-51
2024/01/04 00:33:16;;;;;;;;;;;;;;;;;;5088060;28;19938;-52
2024/01/04 00:35:42;;;;;;;;;;;;;;;;;;5091901;28;19912;-51
2024/01/04 00:38:08;;;;;;;;;;;;;;;;;;5091678;28;19920;-49
2024/01/04 00:40:35;;;;;;;;;;;;;;;;;;5087536;28;19920;-52
2024/01/04 00:43:01;;;;;;;;;;;;;;;;;;5092737;28;19954;-54
2024/01/04 00:45:27;;;;;;;;;;;;;;;;;;5092025;28;20383;-55
2024/01/04 00:47:53;;;;;;;;;;;;;;;;;;5087189;28;19912;-51
2024/01/04 00:50:19;;;;;;;;;;;;;;;;;;5090504;28;19955;-55
2024/01/04 00:52:45;;;;;;;;;;;;;;;;;;5092411;28;19916;-57
2024/01/04 00:55:11;;;;;;;;;;;;;;;;;;5089641;28;19959;-57
2024/01/04 00:57:37;;;;;;;;;;;;;;;;;;5092907;28;19915;-56
2024/01/04 01:00:03;;;;;;;;;;;;;;;;;;5084447;28;20014;-56
2024/01/04 01:02:29;;;;;;;;;;;;;;;;;;5092399;28;19912;-56
2024/01/04 01:04:55;;;;;;;;;;;;;;;;;;5086197;28;20395;-55
2024/01/04 01:07:21;;;;;;;;;;;;;;;;;;5088468;28;19912;-56
2024/01/04 01:09:47;;;;;;;;;;;;;;;;;;5087611;28;20244;-56
2024/01/04 01:12:12;;;;;;;;;;;;;;;;;;5091088;28;19912;-56
2024/01/04 01:14:38;;;;;;;;;;;;;;;;;;5085827;28;19916;-57
2024/01/04 01:17:04;;;;;;;;;;;;;;;;;;5080464;28;20426;-56
2024/01/04 01:19:30;;;;;;;;;;;;;;;;;;5084048;28;19963;-55
2024/01/04 01:21:56;;;;;;;;;;;;;;;;;;5072305;28;19923;-56
2024/01/04 01:24:22;;;;;;;;;;;;;;;;;;5089436;28;20368;-55
2024/01/04 01:26:48;;;;;;;;;;;;;;;;;;5091058;28;19920;-56
2024/01/04 01:29:14;;;;;;;;;;;;;;;;;;5090294;28;20455;-56
2024/01/04 01:31:40;;;;;;;;;;;;;;;;;;5088333;28;19960;-56
2024/01/04 01:34:07;;;;;;;;;;;;;;;;;;5090231;28;20024;-55
2024/01/04 01:36:32;;;;;;;;;;;;;;;;;;5095793;28;19980;-57
2024/01/04 01:38:58;;;;;;;;;;;;;;;;;;5087459;28;19920;-58
2024/01/04 01:41:24;;;;;;;;;;;;;;;;;;5085724;28;20398;-55
2024/01/04 01:43:50;;;;;;;;;;;;;;;;;;5095488;28;19912;-57
2024/01/04 01:46:16;;;;;;;;;;;;;;;;;;5087557;28;20303;-57
2024/01/04 01:48:42;;;;;;;;;;;;;;;;;;5094766;28;19919;-56
2024/01/04 01:51:08;;;;;;;;;;;;;;;;;;5095655;28;19920;-56
2024/01/04 01:53:34;;;;;;;;;;;;;;;;;;5081550;28;20426;-56
2024/01/04 01:56:00;;;;;;;;;;;;;;;;;;5093939;28;20331;-57
2024/01/04 01:58:25;;;;;;;;;;;;;;;;;;5095168;28;19995;-55
2024/01/04 02:00:51;;;;;;;;;;;;;;;;;;5095813;28;20325;-50
2024/01/04 02:03:17;;;;;;;;;;;;;;;;;;5093783;28;19959;-56
2024/01/04 02:05:43;;;;;;;;;;;;;;;;;;5095599;28;19912;-56
2024/01/04 02:08:09;;;;;;;;;;;;;;;;;;5096073;28;20342;-57
2024/01/04 02:10:35;;;;;;;;;;;;;;;;;;5094371;28;19913;-57
2024/01/04 02:13:01;;;;;;;;;;;;;;;;;;5088722;28;19912;-57
2024/01/04 02:15:27;;;;;;;;;;;;;;;;;;5091896;28;20422;-58
2024/01/04 02:17:53;;;;;;;;;;;;;;;;;;5082480;28;19947;-57
2024/01/04 02:20:19;;;;;;;;;;;;;;;;;;5093580;28;19955;-56
2024/01/04 02:22:45;;;;;;;;;;;;;;;;;;5094601;28;19935;-55
2024/01/04 02:25:10;;;;;;;;;;;;;;;;;;5083680;28;20002;-57
2024/01/04 02:27:36;;;;;;;;;;;;;;;;;;5087509;28;19912;-56
2024/01/04 02:30:02;;;;;;;;;;;;;;;;;;5090953;28;19974;-57
2024/01/04 02:32:28;;;;;;;;;;;;;;;;;;5094129;28;19912;-56
2024/01/04 02:34:54;;;;;;;;;;;;;;;;;;5088765;28;19958;-55
2024/01/04 02:37:20;;;;;;;;;;;;;;;;;;5094432;28;19959;-56
2024/01/04 02:39:46;;;;;;;;;;;;;;;;;;5094122;28;20364;-57
2024/01/04 02:42:12;;;;;;;;;;;;;;;;;;5091816;28;19945;-57
2024/01/04 02:44:38;;;;;;;;;;;;;;;;;;5094737;28;20331;-54
2024/01/04 02:47:04;;;;;;;;;;;;;;;;;;5095027;28;19916;-57
2024/01/04 02:49:30;;;;;;;;;;;;;;;;;;5093149;28;20367;-56
2024/01/04 02:51:55;;;;;;;;;;;;;;;;;;5094996;28;20041;-56
2024/01/04 02:54:21;;;;;;;;;;;;;;;;;;5094763;28;19909;-57
2024/01/04 02:56:47;;;;;;;;;;;;;;;;;;5094115;28;19947;-57
2024/01/04 02:59:13;;;;;;;;;;;;;;;;;;5089780;28;20318;-54
2024/01/04 03:01:41;;;;;;;;;;;;;;;;;;5085256;28;19912;-57
2024/01/04 03:04:07;;;;;;;;;;;;;;;;;;5091054;28;19932;-56
2024/01/04 03:06:34;;;;;;;;;;;;;;;;;;5074828;28;19913;-56
2024/01/04 03:09:00;;;;;;;;;;;;;;;;;;5074777;28;19912;-57
2024/01/04 03:11:26;;;;;;;;;;;;;;;;;;5085535;28;20058;-57
2024/01/04 03:13:52;;;;;;;;;;;;;;;;;;5093728;28;19909;-54
2024/01/04 03:16:17;;;;;;;;;;;;;;;;;;5094993;28;19931;-54
2024/01/04 03:18:43;;;;;;;;;;;;;;;;;;5092155;28;19951;-54
2024/01/04 03:21:09;;;;;;;;;;;;;;;;;;5073383;28;19912;-54
2024/01/04 03:23:35;;;;;;;;;;;;;;;;;;5093895;28;20372;-54
2024/01/04 03:26:01;;;;;;;;;;;;;;;;;;5081484;28;19916;-54
2024/01/04 03:28:27;;;;;;;;;;;;;;;;;;5085057;28;20311;-54
2024/01/04 03:30:53;;;;;;;;;;;;;;;;;;5093563;28;19991;-53
2024/01/04 03:33:19;;;;;;;;;;;;;;;;;;5091989;28;19999;-55
2024/01/04 03:35:45;;;;;;;;;;;;;;;;;;5090722;28;20364;-54
2024/01/04 03:38:10;;;;;;;;;;;;;;;;;;5093769;28;19919;-53
2024/01/04 03:40:36;;;;;;;;;;;;;;;;;;5086106;28;19979;-53
2024/01/04 03:43:03;;;;;;;;;;;;;;;;;;5079755;28;19919;-54
2024/01/04 03:45:30;;;;;;;;;;;;;;;;;;5074178;28;19916;-55
2024/01/04 03:47:56;;;;;;;;;;;;;;;;;;5087883;28;19996;-55
2024/01/04 03:50:22;;;;;;;;;;;;;;;;;;5090684;28;20011;-53
2024/01/04 03:52:48;;;;;;;;;;;;;;;;;;5090861;28;19916;-55
2024/01/04 03:55:17;;;;;;;;;;;;;;;;;;5089483;28;19912;-54
2024/01/04 03:57:43;;;;;;;;;;;;;;;;;;5094285;28;20367;-52
2024/01/04 04:00:09;;;;;;;;;;;;;;;;;;5089477;28;19920;-54
2024/01/04 04:02:35;;;;;;;;;;;;;;;;;;5081595;28;19913;-54
2024/01/04 04:05:01;;;;;;;;;;;;;;;;;;5091512;28;19916;-55
2024/01/04 04:07:27;;;;;;;;;;;;;;;;;;5093130;28;20003;-54
2024/01/04 04:09:53;;;;;;;;;;;;;;;;;;5091567;28;19916;-54
2024/01/04 04:12:19;;;;;;;;;;;;;;;;;;5092423;28;19959;-55
2024/01/04 04:14:45;;;;;;;;;;;;;;;;;;5083934;28;19916;-54
2024/01/04 04:17:11;;;;;;;;;;;;;;;;;;5074897;28;19912;-55
2024/01/04 04:19:37;;;;;;;;;;;;;;;;;;5077493;28;19922;-54
2024/01/04 04:22:03;;;;;;;;;;;;;;;;;;5085399;28;19944;-53
2024/01/04 04:24:30;;;;;;;;;;;;;;;;;;5093078;28;19969;-52
2024/01/04 04:26:56;;;;;;;;;;;;;;;;;;5091088;28;19912;-51
2024/01/04 04:29:22;;;;;;;;;;;;;;;;;;5092785;28;19920;-51
2024/01/04 04:31:48;;;;;;;;;;;;;;;;;;5092768;28;19916;-53
2024/01/04 04:34:13;;;;;;;;;;;;;;;;;;5090472;28;19993;-52
2024/01/04 04:36:40;;;;;;;;;;;;;;;;;;5091671;28;20348;-52
2024/01/04 04:39:07;;;;;;;;;;;;;;;;;;5092363;28;20360;-51
2024/01/04 04:41:33;;;;;;;;;;;;;;;;;;5084944;28;20006;-51
2024/01/04 04:43:59;;;;;;;;;;;;;;;;;;5092191;28;20356;-49
2024/01/04 04:46:25;;;;;;;;;;;;;;;;;;5092441;28;19941;-51
2024/01/04 04:48:55;;;;;;;;;;;;;;;;;;5090994;28;19968;-52
2024/01/04 04:51:22;;;;;;;;;;;;;;;;;;5091180;28;19916;-50
2024/01/04 04:53:48;;;;;;;;;;;;;;;;;;5085660;28;19920;-49
2024/01/04 04:56:14;;;;;;;;;;;;;;;;;;5085964;28;19965;-52
2024/01/04 04:58:40;;;;;;;;;;;;;;;;;;5089338;28;20289;-50
2024/01/04 05:01:06;;;;;;;;;;;;;;;;;;5075559;28;19916;-49
2024/01/04 05:03:32;;;;;;;;;;;;;;;;;;5084002;28;20606;-50
2024/01/04 05:05:58;;;;;;;;;;;;;;;;;;5085689;28;19916;-52
2024/01/04 05:08:24;;;;;;;;;;;;;;;;;;5085679;28;19943;-52
2024/01/04 05:10:50;;;;;;;;;;;;;;;;;;5089534;28;20010;-52
2024/01/04 05:13:16;;;;;;;;;;;;;;;;;;5078455;28;20351;-50
2024/01/04 05:15:42;;;;;;;;;;;;;;;;;;5082515;28;19913;-53
2024/01/04 05:18:09;;;;;;;;;;;;;;;;;;5088041;28;19958;-51
2024/01/04 05:20:35;;;;;;;;;;;;;;;;;;5090937;28;19916;-51
2024/01/04 05:23:01;;;;;;;;;;;;;;;;;;5090975;28;20591;-51
2024/01/04 05:25:26;;;;;;;;;;;;;;;;;;5088140;28;19919;-53
2024/01/04 05:27:52;;;;;;;;;;;;;;;;;;5087823;28;20003;-52
2024/01/04 05:30:18;;;;;;;;;;;;;;;;;;5086934;28;19916;-50
2024/01/04 05:32:44;;;;;;;;;;;;;;;;;;5081091;28;19920;-57
2024/01/04 05:35:11;;;;;;;;;;;;;;;;;;5088142;28;19951;-57
2024/01/04 05:37:37;;;;;;;;;;;;;;;;;;5083245;28;19920;-56
2024/01/04 05:40:03;;;;;;;;;;;;;;;;;;5086821;28;19938;-53
2024/01/04 05:42:29;;;;;;;;;;;;;;;;;;5088422;28;19913;-57
2024/01/04 05:44:55;;;;;;;;;;;;;;;;;;5075166;28;19909;-55
2024/01/04 05:47:21;;;;;;;;;;;;;;;;;;5083073;28;19920;-55
2024/01/04 05:49:47;;;;;;;;;;;;;;;;;;5080904;28;20372;-57
2024/01/04 05:52:13;;;;;;;;;;;;;;;;;;5085657;28;19995;-56
2024/01/04 05:54:39;;;;;;;;;;;;;;;;;;5089928;28;20269;-56
2024/01/04 05:57:04;;;;;;;;;;;;;;;;;;5085846;28;19920;-56
2024/01/04 05:59:30;;;;;;;;;;;;;;;;;;5077825;28;19964;-57
2024/01/04 06:01:56;;;;;;;;;;;;;;;;;;5074945;28;19918;-56
2024/01/04 06:04:22;;;;;;;;;;;;;;;;;;5087161;28;20402;-57
2024/01/04 06:06:48;;;;;;;;;;;;;;;;;;5083980;28;19916;-57
2024/01/04 06:09:14;;;;;;;;;;;;;;;;;;5080872;28;20280;-53
2024/01/04 06:11:40;;;;;;;;;;;;;;;;;;5083661;28;20384;-57
2024/01/04 06:14:06;;;;;;;;;;;;;;;;;;5090466;28;19947;-56
2024/01/04 06:16:32;;;;;;;;;;;;;;;;;;5086582;28;19942;-55
2024/01/04 06:18:58;;;;;;;;;;;;;;;;;;5092808;28;19916;-57
2024/01/04 06:21:23;;;;;;;;;;;;;;;;;;5093843;28;19916;-56
2024/01/04 06:23:49;;;;;;;;;;;;;;;;;;5095015;28;20376;-56
2024/01/04 06:26:15;;;;;;;;;;;;;;;;;;5091419;28;20007;-56
2024/01/04 06:28:41;;;;;;;;;;;;;;;;;;5089791;28;20292;-55
2024/01/04 06:31:07;;;;;;;;;;;;;;;;;;5089427;28;19916;-56
2024/01/04 06:33:33;;;;;;;;;;;;;;;;;;5088139;28;19997;-56
2024/01/04 06:35:59;;;;;;;;;;;;;;;;;;5094592;28;20010;-51
2024/01/04 06:38:25;;;;;;;;;;;;;;;;;;5091890;28;19920;-55
2024/01/04 06:40:52;;;;;;;;;;;;;;;;;;5088645;28;19956;-56
2024/01/04 06:43:18;;;;;;;;;;;;;;;;;;5085454;28;19916;-55
2024/01/04 06:45:44;;;;;;;;;;;;;;;;;;5091933;28;20288;-57
2024/01/04 06:48:10;;;;;;;;;;;;;;;;;;5093218;28;19963;-55
2024/01/04 06:50:36;;;;;;;;;;;;;;;;;;5094073;28;19919;-55
2024/01/04 06:53:03;;;;;;;;;;;;;;;;;;5089449;28;19963;-56
2024/01/04 06:55:29;;;;;;;;;;;;;;;;;;5094022;28;19912;-54
2024/01/04 06:57:55;;;;;;;;;;;;;;;;;;5094424;28;19947;-57
2024/01/04 07:00:21;;;;;;;;;;;;;;;;;;5091596;28;20057;-56
2024/01/04 07:02:46;;;;;;;;;;;;;;;;;;5087985;28;19916;-56
2024/01/04 07:05:12;;;;;;;;;;;;;;;;;;5082423;28;19913;-57
2024/01/04 07:07:38;;;;;;;;;;;;;;;;;;5093537;28;19955;-57
2024/01/04 07:10:04;;;;;;;;;;;;;;;;;;5089337;28;19958;-55
2024/01/04 07:12:30;;;;;;;;;;;;;;;;;;5090968;28;19970;-56
2024/01/04 07:14:56;;;;;;;;;;;;;;;;;;5093376;28;20427;-56
2024/01/04 07:17:22;;;;;;;;;;;;;;;;;;5090476;28;19926;-57
2024/01/04 07:19:48;;;;;;;;;;;;;;;;;;5093949;28;19935;-56
2024/01/04 07:22:15;;;;;;;;;;;;;;;;;;5083615;28;19917;-53
2024/01/04 07:24:41;;;;;;;;;;;;;;;;;;5092910;28;19912;-56
2024/01/04 07:27:07;;;;;;;;;;;;;;;;;;5090123;28;19996;-56
2024/01/04 07:29:33;;;;;;;;;;;;;;;;;;5089747;28;19954;-56
2024/01/04 07:31:59;;;;;;;;;;;;;;;;;;5093142;28;19947;-57
2024/01/04 07:34:25;;;;;;;;;;;;;;;;;;5093021;28;20335;-56
2024/01/04 07:36:51;;;;;;;;;;;;;;;;;;5090800;28;19920;-55
2024/01/04 07:39:17;;;;;;;;;;;;;;;;;;5089829;28;19916;-56
2024/01/04 07:41:43;;;;;;;;;;;;;;;;;;5092403;28;19985;-57
2024/01/04 07:44:09;;;;;;;;;;;;;;;;;;5092597;28;19919;-57
2024/01/04 07:46:35;;;;;;;;;;;;;;;;;;5092639;28;19912;-56
2024/01/04 07:49:01;;;;;;;;;;;;;;;;;;5093154;28;20020;-55
2024/01/04 07:51:27;;;;;;;;;;;;;;;;;;5092941;28;19908;-55
2024/01/04 07:53:53;;;;;;;;;;;;;;;;;;5090510;28;19952;-57
2024/01/04 07:56:18;;;;;;;;;;;;;;;;;;5090503;28;20267;-57
2024/01/04 07:58:44;;;;;;;;;;;;;;;;;;5090641;28;19919;-57
2024/01/04 08:01:10;;;;;;;;;;;;;;;;;;5081709;28;19955;-57
2024/01/04 08:03:36;;;;;;;;;;;;;;;;;;5092584;28;20002;-55
2024/01/04 08:06:02;;;;;;;;;;;;;;;;;;5085291;28;19919;-56
2024/01/04 08:08:28;;;;;;;;;;;;;;;;;;5093061;28;19912;-56
2024/01/04 08:10:54;;;;;;;;;;;;;;;;;;5087917;28;19916;-56
2024/01/04 08:13:20;;;;;;;;;;;;;;;;;;5089849;28;19920;-56
2024/01/04 08:15:46;;;;;;;;;;;;;;;;;;5091742;28;19981;-56
2024/01/04 08:18:12;;;;;;;;;;;;;;;;;;5092701;28;19961;-57
2024/01/04 08:20:38;;;;;;;;;;;;;;;;;;5091337;28;19920;-56
2024/01/04 08:23:03;;;;;;;;;;;;;;;;;;5091003;28;19947;-57
2024/01/04 08:25:30;;;;;;;;;;;;;;;;;;5090761;28;19994;-56
2024/01/04 08:27:56;;;;;;;;;;;;;;;;;;5088179;28;19916;-53
2024/01/04 08:30:21;;;;;;;;;;;;;;;;;;5087427;28;19983;-56
2024/01/04 08:32:47;;;;;;;;;;;;;;;;;;5085315;28;19959;-57
2024/01/04 08:35:15;;;;;;;;;;;;;;;;;;5090659;28;20270;-55
2024/01/04 08:37:44;;;;;;;;;;;;;;;;;;5083825;28;19920;-56
2024/01/04 08:40:09;;;;;;;;;;;;;;;;;;5089065;28;20380;-55
2024/01/04 08:42:35;;;;;;;;;;;;;;;;;;5091323;28;19951;-55
2024/01/04 08:45:01;;;;;;;;;;;;;;;;;;5085895;28;19912;-57
2024/01/04 08:47:27;;;;;;;;;;;;;;;;;;5091665;28;19951;-56
2024/01/04 08:49:53;;;;;;;;;;;;;;;;;;5091892;28;19934;-56
2024/01/04 08:52:19;;;;;;;;;;;;;;;;;;5091808;28;19911;-56
2024/01/04 08:54:45;;;;;;;;;;;;;;;;;;5092123;28;20265;-55
2024/01/04 08:57:11;;;;;;;;;;;;;;;;;;5087745;28;19923;-54
2024/01/04 08:59:37;;;;;;;;;;;;;;;;;;5089393;28;19920;-57
2024/01/04 09:02:03;;;;;;;;;;;;;;;;;;5086942;28;19916;-53
2024/01/04 09:04:29;;;;;;;;;;;;;;;;;;5085237;28;19958;-54
2024/01/04 09:06:55;;;;;;;;;;;;;;;;;;5091205;28;19966;-52
2024/01/04 09:09:21;;;;;;;;;;;;;;;;;;5091393;28;20275;-53
2024/01/04 09:11:48;;;;;;;;;;;;;;;;;;5082545;28;19920;-53
2024/01/04 09:14:14;;;;;;;;;;;;;;;;;;5089126;28;19949;-52
2024/01/04 09:16:40;;;;;;;;;;;;;;;;;;5083842;28;19944;-50
2024/01/04 09:19:06;;;;;;;;;;;;;;;;;;5083892;28;20368;-53
2024/01/04 09:21:32;;;;;;;;;;;;;;;;;;5080014;28;20304;-50
2024/01/04 09:23:58;;;;;;;;;;;;;;;;;;5089178;28;19917;-53
2024/01/04 09:26:24;;;;;;;;;;;;;;;;;;5087594;28;19920;-52
2024/01/04 09:28:51;;;;;;;;;;;;;;;;;;5085208;28;19971;-53
2024/01/04 09:31:17;;;;;;;;;;;;;;;;;;5090069;28;19908;-52
2024/01/04 09:33:43;;;;;;;;;;;;;;;;;;5084695;28;19947;-53
2024/01/04 09:36:08;;;;;;;;;;;;;;;;;;5091054;28;19999;-51
2024/01/04 09:38:34;;;;;;;;;;;;;;;;;;5090926;28;19919;-52
2024/01/04 09:41:01;;;;;;;;;;;;;;;;;;5082324;28;19959;-52
2024/01/04 09:43:29;;;;;;;;;;;;;;;;;;5087863;28;19915;-53
2024/01/04 09:45:55;;;;;;;;;;;;;;;;;;5088513;28;19919;-53
2024/01/04 09:48:21;;;;;;;;;;;;;;;;;;5091496;28;19912;-54
2024/01/04 09:50:48;;;;;;;;;;;;;;;;;;5080160;28;19916;-52
2024/01/04 09:53:13;;;;;;;;;;;;;;;;;;5094964;28;20330;-53
2024/01/04 09:55:40;;;;;;;;;;;;;;;;;;5091151;28;20372;-51
2024/01/04 09:58:09;;;;;;;;;;;;;;;;;;5093507;28;20356;-52
2024/01/04 10:00:35;;;;;;;;;;;;;;;;;;5087543;28;19925;-50
2024/01/04 10:03:00;;;;;;;;;;;;;;;;;;5093882;28;19912;-53
2024/01/04 10:05:26;;;;;;;;;;;;;;;;;;5089269;28;20010;-52
2024/01/04 10:07:52;;;;;;;;;;;;;;;;;;5091872;28;19916;-54
2024/01/04 10:10:19;;;;;;;;;;;;;;;;;;5093627;28;20018;-52
2024/01/04 10:12:45;;;;;;;;;;;;;;;;;;5093400;28;19955;-56
2024/01/04 10:15:11;;;;;;;;;;;;;;;;;;5095212;28;19974;-57
2024/01/04 10:17:37;;;;;;;;;;;;;;;;;;5093559;28;20358;-57
2024/01/04 10:20:04;;;;;;;;;;;;;;;;;;5092992;28;19916;-55
2024/01/04 10:22:30;;;;;;;;;;;;;;;;;;5094153;28;19916;-56
2024/01/04 10:24:56;;;;;;;;;;;;;;;;;;5078779;28;19997;-56
2024/01/04 10:27:22;;;;;;;;;;;;;;;;;;5083389;28;19912;-57
2024/01/04 10:29:51;;;;;;;;;;;;;;;;;;5093837;28;19931;-55
2024/01/04 10:32:17;;;;;;;;;;;;;;;;;;5091153;28;19923;-56
2024/01/04 10:34:44;;;;;;;;;;;;;;;;;;5089363;28;19912;-56
2024/01/04 10:37:11;;;;;;;;;;;;;;;;;;5094298;28;19908;-57
2024/01/04 10:39:37;;;;;;;;;;;;;;;;;;5092403;28;19920;-56
2024/01/04 10:42:03;;;;;;;;;;;;;;;;;;5091678;28;19962;-56
2024/01/04 10:44:28;;;;;;;;;;;;;;;;;;5090008;28;19967;-57
2024/01/04 10:46:55;;;;;;;;;;;;;;;;;;5088676;28;20450;-57
2024/01/04 10:49:21;;;;;;;;;;;;;;;;;;5093385;28;20283;-57
2024/01/04 10:51:46;;;;;;;;;;;;;;;;;;5088866;28;19912;-56
2024/01/04 10:54:12;;;;;;;;;;;;;;;;;;5092832;28;19959;-57
2024/01/04 10:56:38;;;;;;;;;;;;;;;;;;5093574;28;20367;-56
2024/01/04 10:59:04;;;;;;;;;;;;;;;;;;5088665;28;19920;-55
2024/01/04 11:01:30;;;;;;;;;;;;;;;;;;5093725;28;20445;-56
2024/01/04 11:03:56;;;;;;;;;;;;;;;;;;5092674;28;20311;-57
2024/01/04 11:06:23;;;;;;;;;;;;;;;;;;5092113;28;19913;-53
2024/01/04 11:08:49;;;;;;;;;;;;;;;;;;5086856;28;20012;-57
2024/01/04 11:11:15;;;;;;;;;;;;;;;;;;5093921;28;20415;-55
2024/01/04 11:13:42;;;;;;;;;;;;;;;;;;5093057;28;20363;-57
2024/01/04 11:16:08;;;;;;;;;;;;;;;;;;5085414;28;19920;-56
2024/01/04 11:18:34;;;;;;;;;;;;;;;;;;5093355;28;19958;-56
2024/01/04 11:21:00;;;;;;;;;;;;;;;;;;5092197;28;19937;-56
2024/01/04 11:23:26;;;;;;;;;;;;;;;;;;5093767;28;19919;-53
2024/01/04 11:25:51;;;;;;;;;;;;;;;;;;5090110;28;19969;-54
2024/01/04 11:28:17;;;;;;;;;;;;;;;;;;5082516;28;19971;-51
2024/01/04 11:30:43;;;;;;;;;;;;;;;;;;5086357;28;20003;-53
2024/01/04 11:33:09;;;;;;;;;;;;;;;;;;5089203;28;19912;-53
2024/01/04 11:35:35;;;;;;;;;;;;;;;;;;5087854;28;19912;-52
2024/01/04 11:38:01;;;;;;;;;;;;;;;;;;5093208;28;20038;-53
2024/01/04 11:40:27;;;;;;;;;;;;;;;;;;5093268;28;19958;-53
2024/01/04 11:42:53;;;;;;;;;;;;;;;;;;5089273;28;19919;-55
2024/01/04 11:45:19;;;;;;;;;;;;;;;;;;5083337;28;19916;-55
2024/01/04 11:47:45;;;;;;;;;;;;;;;;;;5093403;28;19953;-54
2024/01/04 11:50:11;;;;;;;;;;;;;;;;;;5092219;28;19943;-53
2024/01/04 11:52:37;;;;;;;;;;;;;;;;;;5091956;28;19978;-51
2024/01/04 11:55:03;;;;;;;;;;;;;;;;;;5092650;28;19912;-51
2024/01/04 11:57:29;;;;;;;;;;;;;;;;;;5087886;28;19920;-53
2024/01/04 11:59:55;;;;;;;;;;;;;;;;;;5085334;28;19955;-54
2024/01/04 12:02:21;;;;;;;;;;;;;;;;;;5090250;28;19973;-53
2024/01/04 12:04:47;;;;;;;;;;;;;;;;;;5082261;28;19913;-55
2024/01/04 12:07:12;;;;;;;;;;;;;;;;;;5085111;28;19912;-53
2024/01/04 12:09:39;;;;;;;;;;;;;;;;;;5083238;28;20031;-55
2024/01/04 12:12:05;;;;;;;;;;;;;;;;;;5079260;28;19935;-52
2024/01/04 12:14:31;;;;;;;;;;;;;;;;;;5079093;28;20381;-54
2024/01/04 12:16:59;;;;;;;;;;;;;;;;;;5080379;28;19917;-53
2024/01/04 12:19:25;;;;;;;;;;;;;;;;;;5078232;28;19924;-51
2024/01/04 12:21:51;;;;;;;;;;;;;;;;;;5085486;28;20381;-51
2024/01/04 12:24:17;;;;;;;;;;;;;;;;;;5080354;28;20372;-53
2024/01/04 12:26:43;;;;;;;;;;;;;;;;;;5084137;28;19919;-51
2024/01/04 12:29:09;;;;;;;;;;;;;;;;;;5079703;28;19928;-53
2024/01/04 12:31:35;;;;;;;;;;;;;;;;;;5082011;28;19958;-52
2024/01/04 12:34:01;;;;;;;;;;;;;;;;;;5085169;28;20039;-52
2024/01/04 12:36:27;;;;;;;;;;;;;;;;;;5078660;28;19912;-51
2024/01/04 12:38:53;;;;;;;;;;;;;;;;;;5080447;28;19951;-52
2024/01/04 12:41:19;;;;;;;;;;;;;;;;;;5084813;28;19967;-52
2024/01/04 12:43:48;;;;;;;;;;;;;;;;;;5087734;28;19916;-52
2024/01/04 12:46:15;;;;;;;;;;;;;;;;;;5091353;28;19912;-50
2024/01/04 12:48:41;;;;;;;;;;;;;;;;;;5088106;28;20372;-51
2024/01/04 12:51:07;;;;;;;;;;;;;;;;;;5081741;28;19912;-51
2024/01/04 12:53:33;;;;;;;;;;;;;;;;;;5081868;28;20295;-53
2024/01/04 12:55:59;;;;;;;;;;;;;;;;;;5086194;28;20028;-52
2024/01/04 12:58:25;;;;;;;;;;;;;;;;;;5082977;28;19919;-52
2024/01/04 13:00:52;;;;;;;;;;;;;;;;;;5087430;28;20016;-50
2024/01/04 13:03:18;;;;;;;;;;;;;;;;;;5090268;28;20373;-52
2024/01/04 13:05:44;;;;;;;;;;;;;;;;;;5091139;28;19994;-52
2024/01/04 13:08:10;;;;;;;;;;;;;;;;;;5090902;28;19912;-52
2024/01/04 13:10:35;;;;;;;;;;;;;;;;;;5083102;28;19971;-51
2024/01/04 13:13:02;;;;;;;;;;;;;;;;;;5086234;28;19912;-49
2024/01/04 13:15:28;;;;;;;;;;;;;;;;;;5089254;28;19965;-50
2024/01/04 13:17:54;;;;;;;;;;;;;;;;;;5081899;28;19963;-51
2024/01/04 13:20:20;;;;;;;;;;;;;;;;;;5086236;28;20334;-51
2024/01/04 13:22:46;;;;;;;;;;;;;;;;;;5089781;28;19995;-51
2024/01/04 13:25:11;;;;;;;;;;;;;;;;;;5091227;28;19966;-51
2024/01/04 13:27:37;;;;;;;;;;;;;;;;;;5088821;28;19931;-52
2024/01/04 13:30:03;;;;;;;;;;;;;;;;;;5089915;28;19924;-51
2024/01/04 13:32:29;;;;;;;;;;;;;;;;;;5087592;28;20317;-52
2024/01/04 13:34:56;;;;;;;;;;;;;;;;;;5091337;28;19955;-52
2024/01/04 13:37:22;;;;;;;;;;;;;;;;;;5091779;28;20278;-51
2024/01/04 13:39:48;;;;;;;;;;;;;;;;;;5087957;28;19952;-50
2024/01/04 13:42:15;;;;;;;;;;;;;;;;;;5087291;28;19916;-52
2024/01/04 13:44:41;;;;;;;;;;;;;;;;;;5082514;28;19909;-54
2024/01/04 13:47:07;;;;;;;;;;;;;;;;;;5086938;28;19916;-53
2024/01/04 13:49:33;;;;;;;;;;;;;;;;;;5084666;28;19913;-51
2024/01/04 13:51:59;;;;;;;;;;;;;;;;;;5078792;28;19966;-55
2024/01/04 13:54:25;;;;;;;;;;;;;;;;;;5090782;28;20380;-53
2024/01/04 13:56:51;;;;;;;;;;;;;;;;;;5090794;28;19953;-55
2024/01/04 13:59:18;;;;;;;;;;;;;;;;;;5088188;28;20328;-53
2024/01/04 14:01:44;;;;;;;;;;;;;;;;;;5087973;28;19909;-53
2024/01/04 14:04:09;;;;;;;;;;;;;;;;;;5079727;28;20327;-53
2024/01/04 14:06:35;;;;;;;;;;;;;;;;;;5080432;28;19966;-52
2024/01/04 14:09:01;;;;;;;;;;;;;;;;;;5085516;28;20006;-53
2024/01/04 14:11:28;;;;;;;;;;;;;;;;;;5086806;28;20068;-53
2024/01/04 14:13:54;;;;;;;;;;;;;;;;;;5089320;28;20386;-52
2024/01/04 14:16:20;;;;;;;;;;;;;;;;;;5090331;28;19918;-50
2024/01/04 14:18:46;;;;;;;;;;;;;;;;;;5084440;28;20005;-51
2024/01/04 14:21:12;;;;;;;;;;;;;;;;;;5089994;28;19916;-54
2024/01/04 14:23:38;;;;;;;;;;;;;;;;;;5088761;28;19962;-53
2024/01/04 14:26:05;;;;;;;;;;;;;;;;;;5090870;28;19916;-54
2024/01/04 14:28:31;;;;;;;;;;;;;;;;;;5086828;28;20060;-54
2024/01/04 14:30:57;;;;;;;;;;;;;;;;;;5090356;28;20364;-54
2024/01/04 14:33:23;;;;;;;;;;;;;;;;;;5090417;28;19912;-53
2024/01/04 14:35:48;;;;;;;;;;;;;;;;;;5085777;28;20082;-55
2024/01/04 14:38:14;;;;;;;;;;;;;;;;;;5090729;28;19915;-54
2024/01/04 14:40:40;;;;;;;;;;;;;;;;;;5090248;28;20046;-54
2024/01/04 14:43:07;;;;;;;;;;;;;;;;;;5089967;28;19989;-53
2024/01/04 14:45:33;;;;;;;;;;;;;;;;;;5085716;28;19983;-53
2024/01/04 14:48:00;;;;;;;;;;;;;;;;;;5085760;28;20305;-53
2024/01/04 14:50:25;;;;;;;;;;;;;;;;;;5088408;28;19935;-53
2024/01/04 14:52:52;;;;;;;;;;;;;;;;;;5091830;28;19912;-56
2024/01/04 14:55:22;;;;;;;;;;;;;;;;;;5091662;28;19908;-55
2024/01/04 14:57:48;;;;;;;;;;;;;;;;;;5085365;28;19916;-56
2024/01/04 15:00:14;;;;;;;;;;;;;;;;;;5093397;28;20020;-57
2024/01/04 15:02:40;;;;;;;;;;;;;;;;;;5093846;28;19982;-62
2024/01/04 15:05:06;;;;;;;;;;;;;;;;;;5089704;28;19913;-56
2024/01/04 15:07:32;;;;;;;;;;;;;;;;;;5093495;28;19916;-56
2024/01/04 15:09:58;;;;;;;;;;;;;;;;;;5089222;28;19935;-53
2024/01/04 15:12:27;;;;;;;;;;;;;;;;;;5088004;28;19986;-57
2024/01/04 15:14:53;;;;;;;;;;;;;;;;;;5090913;28;19920;-56
2024/01/04 15:17:20;;;;;;;;;;;;;;;;;;5092376;28;19992;-57
2024/01/04 15:19:45;;;;;;;;;;;;;;;;;;5087613;28;19944;-56
2024/01/04 15:22:11;;;;;;;;;;;;;;;;;;5086039;28;19955;-57
2024/01/04 15:24:37;;;;;;;;;;;;;;;;;;5088165;28;20333;-57
2024/01/04 15:27:04;;;;;;;;;;;;;;;;;;5080561;28;19938;-55
2024/01/04 15:29:30;;;;;;;;;;;;;;;;;;5093143;28;20012;-56
2024/01/04 15:31:59;;;;;;;;;;;;;;;;;;5079730;28;21582;-56
2024/01/04 15:34:25;;;;;;;;;;;;;;;;;;5091933;28;19964;-56
2024/01/04 15:36:52;;;;;;;;;;;;;;;;;;5087991;28;20424;-55
2024/01/04 15:39:17;;;;;;;;;;;;;;;;;;5087093;28;19920;-55
2024/01/04 15:41:43;;;;;;;;;;;;;;;;;;5083372;28;19948;-56
2024/01/04 15:44:11;;;;;;;;;;;;;;;;;;5085687;28;19916;-56
2024/01/04 15:46:37;;;;;;;;;;;;;;;;;;5089889;28;19912;-54
2024/01/04 15:49:03;;;;;;;;;;;;;;;;;;5086591;28;20016;-56
2024/01/04 15:51:32;;;;;;;;;;;;;;;;;;5085632;28;19959;-56
2024/01/04 15:53:58;;;;;;;;;;;;;;;;;;5084577;28;19942;-56
2024/01/04 15:56:24;;;;;;;;;;;;;;;;;;5082808;28;20498;-57
2024/01/04 15:58:50;;;;;;;;;;;;;;;;;;5082399;28;19958;-56
2024/01/04 16:01:16;;;;;;;;;;;;;;;;;;5085247;28;19959;-54
2024/01/04 16:03:42;;;;;;;;;;;;;;;;;;5082849;28;20275;-53
2024/01/04 16:06:08;;;;;;;;;;;;;;;;;;5078821;28;19930;-52
2024/01/04 16:08:34;;;;;;;;;;;;;;;;;;5085251;28;19978;-52
2024/01/04 16:11:00;;;;;;;;;;;;;;;;;;5082734;28;19976;-52
2024/01/04 16:13:26;;;;;;;;;;;;;;;;;;5084182;28;19912;-53
2024/01/04 16:15:52;;;;;;;;;;;;;;;;;;5084241;28;19924;-53
2024/01/04 16:18:19;;;;;;;;;;;;;;;;;;5084217;28;19916;-51
2024/01/04 16:20:45;;;;;;;;;;;;;;;;;;5086380;28;19970;-54
2024/01/04 16:23:11;;;;;;;;;;;;;;;;;;5083582;28;19949;-55
2024/01/04 16:25:37;;;;;;;;;;;;;;;;;;5083447;28;19943;-53
2024/01/04 16:28:03;;;;;;;;;;;;;;;;;;5082559;28;19934;-52
2024/01/04 16:30:29;;;;;;;;;;;;;;;;;;5081292;28;19969;-54
2024/01/04 16:32:55;;;;;;;;;;;;;;;;;;5086322;28;20400;-54
2024/01/04 16:35:21;;;;;;;;;;;;;;;;;;5085062;28;19966;-53
2024/01/04 16:37:47;;;;;;;;;;;;;;;;;;5085925;28;19940;-54